createdAt,value
2017-12-25T00:00:00.219Z,9.19
2017-12-25T00:00:39.219Z,9.23
2017-12-25T00:01:39.201Z,9.26
2017-12-25T00:02:40.089Z,9.26
2017-12-25T00:04:00.200Z,9.14
2017-12-25T00:05:00.195Z,9.11
2017-12-25T00:05:39.267Z,9.00
2017-12-25T00:06:39.184Z,9.03
2017-12-25T00:07:41.508Z,8.94
2017-12-25T00:09:01.078Z,8.94
2017-12-25T00:10:00.721Z,9.03
2017-12-25T00:10:39.194Z,8.92
2017-12-25T00:11:39.214Z,8.99
2017-12-25T00:12:39.176Z,9.08
2017-12-25T00:14:01.071Z,9.03
2017-12-25T00:15:00.159Z,9.02
2017-12-25T00:15:39.249Z,9.14
2017-12-25T00:16:39.705Z,9.10
2017-12-25T00:17:39.156Z,9.08
2017-12-25T00:19:00.686Z,9.04
2017-12-25T00:20:00.128Z,9.00
2017-12-25T00:20:39.163Z,8.94
2017-12-25T00:21:39.637Z,8.99
2017-12-25T00:22:40.098Z,8.99
2017-12-25T00:24:00.106Z,8.99
2017-12-25T00:25:01.035Z,8.91
2017-12-25T00:25:39.194Z,8.97
2017-12-25T00:26:40.075Z,8.88
2017-12-25T00:27:39.123Z,8.87
2017-12-25T00:29:00.134Z,8.95
2017-12-25T00:30:00.988Z,8.89
2017-12-25T00:30:39.093Z,8.76
2017-12-25T00:31:39.077Z,8.76
2017-12-25T00:32:39.146Z,8.79
2017-12-25T00:34:00.096Z,8.66
2017-12-25T00:35:00.099Z,8.53
2017-12-25T00:35:39.070Z,8.58
2017-12-25T00:36:39.053Z,8.60
2017-12-25T00:37:39.577Z,8.70
2017-12-25T00:39:00.722Z,8.69
2017-12-25T00:40:00.066Z,8.63
2017-12-25T00:40:39.066Z,8.66
2017-12-25T00:41:39.077Z,8.67
2017-12-25T00:42:39.061Z,8.71
2017-12-25T00:44:00.075Z,8.64
2017-12-25T00:45:00.032Z,8.70
2017-12-25T00:45:39.041Z,8.70
2017-12-25T00:46:39.061Z,8.84
2017-12-25T00:47:39.020Z,8.71
2017-12-25T00:49:00.100Z,8.70
2017-12-25T00:50:00.057Z,8.74
2017-12-25T00:50:39.057Z,8.69
2017-12-25T00:51:39.007Z,8.79
2017-12-25T00:52:39.008Z,8.71
2017-12-25T00:54:00.095Z,8.53
2017-12-25T00:54:59.980Z,8.66
2017-12-25T00:55:38.991Z,8.64
2017-12-25T00:56:38.988Z,8.53
2017-12-25T00:57:39.079Z,8.66
2017-12-25T00:58:59.989Z,8.53
2017-12-25T01:00:00.053Z,8.52
2017-12-25T01:00:39.019Z,8.48
2017-12-25T01:01:38.989Z,8.42
2017-12-25T01:02:38.998Z,8.42
2017-12-25T01:03:59.986Z,8.48
2017-12-25T01:04:59.940Z,8.45
2017-12-25T01:05:38.993Z,8.46
2017-12-25T01:06:38.949Z,8.44
2017-12-25T01:07:38.983Z,8.52
2017-12-25T01:09:00.673Z,8.44
2017-12-25T01:09:59.940Z,8.41
2017-12-25T01:10:38.941Z,8.41
2017-12-25T01:11:38.917Z,8.45
2017-12-25T01:12:38.967Z,8.44
2017-12-25T01:13:59.938Z,8.45
2017-12-25T01:14:59.918Z,8.41
2017-12-25T01:15:38.924Z,8.34
2017-12-25T01:16:38.909Z,8.42
2017-12-25T01:17:38.904Z,8.44
2017-12-25T01:19:00.653Z,8.44
2017-12-25T01:19:59.969Z,8.44
2017-12-25T01:20:39.640Z,8.48
2017-12-25T01:21:38.984Z,8.52
2017-12-25T01:22:38.888Z,8.42
2017-12-25T01:24:00.628Z,8.44
2017-12-25T01:24:59.925Z,8.51
2017-12-25T01:25:38.872Z,8.46
2017-12-25T01:26:38.866Z,8.51
2017-12-25T01:27:38.878Z,8.44
2017-12-25T01:28:59.875Z,8.45
2017-12-25T01:29:59.904Z,8.44
2017-12-25T01:30:38.854Z,8.58
2017-12-25T01:31:38.842Z,8.61
2017-12-25T01:32:38.863Z,8.55
2017-12-25T01:33:59.850Z,8.45
2017-12-25T01:35:00.627Z,8.53
2017-12-25T01:35:38.829Z,8.52
2017-12-25T01:36:40.043Z,8.49
2017-12-25T01:37:38.816Z,8.61
2017-12-25T01:38:59.814Z,8.55
2017-12-25T01:39:59.826Z,8.56
2017-12-25T01:40:38.824Z,8.51
2017-12-25T01:41:39.575Z,8.58
2017-12-25T01:42:38.792Z,8.67
2017-12-25T01:43:59.800Z,8.63
2017-12-25T01:44:59.823Z,8.64
2017-12-25T01:45:38.799Z,8.64
2017-12-25T01:46:39.506Z,8.67
2017-12-25T01:47:40.258Z,8.67
2017-12-25T01:48:59.828Z,8.66
2017-12-25T01:50:02.207Z,8.70
2017-12-25T01:50:38.785Z,8.66
2017-12-25T01:51:38.802Z,8.63
2017-12-25T01:52:38.774Z,8.63
2017-12-25T01:53:59.822Z,8.64
2017-12-25T01:54:59.769Z,8.63
2017-12-25T01:55:38.777Z,8.56
2017-12-25T01:56:38.753Z,8.58
2017-12-25T01:57:38.780Z,8.61
2017-12-25T01:58:59.843Z,8.61
2017-12-25T01:59:59.765Z,8.63
2017-12-25T02:00:38.781Z,8.58
2017-12-25T02:01:39.404Z,8.63
2017-12-25T02:02:38.817Z,8.61
2017-12-25T02:03:59.739Z,8.55
2017-12-25T02:04:59.743Z,8.55
2017-12-25T02:05:38.734Z,8.63
2017-12-25T02:06:38.723Z,8.70
2017-12-25T02:07:38.726Z,8.70
2017-12-25T02:08:59.714Z,8.69
2017-12-25T02:09:59.729Z,8.63
2017-12-25T02:10:38.694Z,8.58
2017-12-25T02:11:38.674Z,8.60
2017-12-25T02:12:38.686Z,8.64
2017-12-25T02:13:59.672Z,8.63
2017-12-25T02:14:59.737Z,8.58
2017-12-25T02:15:38.738Z,8.67
2017-12-25T02:16:38.730Z,8.61
2017-12-25T02:17:38.736Z,8.63
2017-12-25T02:18:59.675Z,8.60
2017-12-25T02:20:01.034Z,8.63
2017-12-25T02:20:38.682Z,8.53
2017-12-25T02:21:38.678Z,8.52
2017-12-25T02:22:38.657Z,8.52
2017-12-25T02:23:59.659Z,8.58
2017-12-25T02:24:59.677Z,8.63
2017-12-25T02:25:38.664Z,8.67
2017-12-25T02:26:38.651Z,8.63
2017-12-25T02:27:38.629Z,8.66
2017-12-25T02:28:59.632Z,8.61
2017-12-25T02:29:59.688Z,8.61
2017-12-25T02:30:39.635Z,8.66
2017-12-25T02:31:38.622Z,8.56
2017-12-25T02:32:38.626Z,8.63
2017-12-25T02:33:59.611Z,8.55
2017-12-25T02:34:59.629Z,8.53
2017-12-25T02:35:39.516Z,8.58
2017-12-25T02:36:38.590Z,8.53
2017-12-25T02:37:38.580Z,8.42
2017-12-25T02:38:59.634Z,8.46
2017-12-25T02:39:59.592Z,8.60
2017-12-25T02:40:38.623Z,8.45
2017-12-25T02:41:38.652Z,8.52
2017-12-25T02:42:38.559Z,8.51
2017-12-25T02:43:59.587Z,8.49
2017-12-25T02:45:00.130Z,8.48
2017-12-25T02:45:38.552Z,8.48
2017-12-25T02:46:38.574Z,8.46
2017-12-25T02:47:38.535Z,8.45
2017-12-25T02:48:59.541Z,8.44
2017-12-25T02:50:00.518Z,8.46
2017-12-25T02:50:38.560Z,8.33
2017-12-25T02:51:38.513Z,8.42
2017-12-25T02:52:38.553Z,8.46
2017-12-25T02:53:59.520Z,8.34
2017-12-25T02:54:59.560Z,8.41
2017-12-25T02:55:38.529Z,8.37
2017-12-25T02:56:38.528Z,8.42
2017-12-25T02:57:38.511Z,8.31
2017-12-25T02:58:59.539Z,8.45
2017-12-25T02:59:59.552Z,8.34
2017-12-25T03:00:38.501Z,8.37
2017-12-25T03:01:38.508Z,8.37
2017-12-25T03:02:39.097Z,8.31
2017-12-25T03:03:59.549Z,8.24
2017-12-25T03:04:59.489Z,8.37
2017-12-25T03:05:38.522Z,8.41
2017-12-25T03:06:38.482Z,8.33
2017-12-25T03:07:38.515Z,8.31
2017-12-25T03:08:59.509Z,8.36
2017-12-25T03:10:01.217Z,8.41
2017-12-25T03:10:39.258Z,8.44
2017-12-25T03:11:38.464Z,8.44
2017-12-25T03:12:38.478Z,8.44
2017-12-25T03:15:11.641Z,8.33
2017-12-25T03:16:11.635Z,8.34
2017-12-25T03:18:05.051Z,8.33
2017-12-25T03:19:05.000Z,8.28
2017-12-25T03:20:58.481Z,8.24
2017-12-25T03:21:58.389Z,8.24
2017-12-25T03:23:53.011Z,8.34
2017-12-25T03:24:52.945Z,8.37
2017-12-25T03:26:46.458Z,8.36
2017-12-25T03:27:46.302Z,8.23
2017-12-25T03:30:02.059Z,8.28
2017-12-25T03:31:01.779Z,8.23
2017-12-25T03:33:03.320Z,8.33
2017-12-25T03:34:03.313Z,8.20
2017-12-25T03:35:59.209Z,8.37
2017-12-25T03:36:59.175Z,8.36
2017-12-25T03:38:53.628Z,8.26
2017-12-25T03:39:53.521Z,8.23
2017-12-25T03:41:47.913Z,8.34
2017-12-25T03:42:47.902Z,8.45
2017-12-25T03:44:41.272Z,8.37
2017-12-25T03:45:41.275Z,8.26
2017-12-25T03:47:35.185Z,8.23
2017-12-25T03:48:34.682Z,8.41
2017-12-25T03:50:29.020Z,8.31
2017-12-25T03:51:29.598Z,8.36
2017-12-25T03:53:22.391Z,8.33
2017-12-25T03:54:22.399Z,8.41
2017-12-25T03:56:17.350Z,8.34
2017-12-25T03:57:16.740Z,8.28
2017-12-25T03:59:12.175Z,8.26
2017-12-25T04:00:11.345Z,8.24
2017-12-25T04:02:05.786Z,8.18
2017-12-25T04:03:05.701Z,8.10
2017-12-25T04:05:06.104Z,8.23
2017-12-25T04:06:06.099Z,8.23
2017-12-25T04:08:11.886Z,8.13
2017-12-25T04:09:11.923Z,8.19
2017-12-25T04:10:11.868Z,8.10
2017-12-25T04:11:11.912Z,8.20
2017-12-25T04:12:11.847Z,8.27
2017-12-25T04:13:11.856Z,8.24
2017-12-25T04:14:11.849Z,8.24
2017-12-25T04:15:11.862Z,8.20
2017-12-25T04:16:13.494Z,8.19
2017-12-25T04:17:11.828Z,8.15
2017-12-25T04:18:11.831Z,8.00
2017-12-25T04:19:11.820Z,8.05
2017-12-25T04:20:11.837Z,8.05
2017-12-25T04:21:11.813Z,8.10
2017-12-25T04:22:11.815Z,8.10
2017-12-25T04:23:11.800Z,8.13
2017-12-25T04:24:11.805Z,8.16
2017-12-25T04:25:11.826Z,8.20
2017-12-25T04:26:11.791Z,8.20
2017-12-25T04:27:11.786Z,8.19
2017-12-25T04:28:11.782Z,8.23
2017-12-25T04:29:11.782Z,8.20
2017-12-25T04:30:11.792Z,8.27
2017-12-25T04:31:11.778Z,8.30
2017-12-25T04:32:11.791Z,8.27
2017-12-25T04:33:14.490Z,8.19
2017-12-25T04:34:11.761Z,8.26
2017-12-25T04:35:11.755Z,8.19
2017-12-25T04:36:11.755Z,8.24
2017-12-25T04:37:11.760Z,8.19
2017-12-25T04:38:11.744Z,8.15
2017-12-25T04:39:11.764Z,8.20
2017-12-25T04:40:11.752Z,8.16
2017-12-25T04:41:11.771Z,8.06
2017-12-25T04:42:11.741Z,8.01
2017-12-25T04:43:11.718Z,8.05
2017-12-25T04:44:11.736Z,8.01
2017-12-25T04:45:13.493Z,8.03
2017-12-25T04:46:11.717Z,8.05
2017-12-25T04:47:11.708Z,8.06
2017-12-25T04:48:11.712Z,8.03
2017-12-25T04:49:14.502Z,8.03
2017-12-25T04:50:11.707Z,8.03
2017-12-25T04:51:11.693Z,7.94
2017-12-25T04:52:11.722Z,7.90
2017-12-25T04:53:11.680Z,8.08
2017-12-25T04:54:11.677Z,8.09
2017-12-25T04:55:11.668Z,8.10
2017-12-25T04:56:11.668Z,8.05
2017-12-25T04:57:11.664Z,8.09
2017-12-25T04:58:11.746Z,8.06
2017-12-25T04:59:11.661Z,8.09
2017-12-25T05:00:11.652Z,7.98
2017-12-25T05:01:13.505Z,7.95
2017-12-25T05:02:11.645Z,7.95
2017-12-25T05:03:11.647Z,7.95
2017-12-25T05:04:11.630Z,7.97
2017-12-25T05:05:11.639Z,7.87
2017-12-25T05:06:11.637Z,7.90
2017-12-25T05:07:11.627Z,7.90
2017-12-25T05:08:11.618Z,7.88
2017-12-25T05:09:11.612Z,7.88
2017-12-25T05:10:11.607Z,7.88
2017-12-25T05:11:13.499Z,7.94
2017-12-25T05:12:11.599Z,7.95
2017-12-25T05:13:11.596Z,7.97
2017-12-25T05:14:11.595Z,8.09
2017-12-25T05:15:11.585Z,7.95
2017-12-25T05:16:13.501Z,8.15
2017-12-25T05:17:11.580Z,8.00
2017-12-25T05:18:11.609Z,8.03
2017-12-25T05:19:11.565Z,8.06
2017-12-25T05:20:11.566Z,7.95
2017-12-25T05:21:11.566Z,7.97
2017-12-25T05:22:11.555Z,7.93
2017-12-25T05:23:11.552Z,7.83
2017-12-25T05:24:11.555Z,7.87
2017-12-25T05:25:11.556Z,7.94
2017-12-25T05:26:11.537Z,7.90
2017-12-25T05:27:11.532Z,7.91
2017-12-25T05:28:11.527Z,7.88
2017-12-25T05:29:11.521Z,7.85
2017-12-25T05:30:11.519Z,7.95
2017-12-25T05:31:11.520Z,7.90
2017-12-25T05:32:11.514Z,7.90
2017-12-25T05:33:11.502Z,7.91
2017-12-25T05:34:11.506Z,7.83
2017-12-25T05:35:11.504Z,7.85
2017-12-25T05:36:11.489Z,7.85
2017-12-25T05:37:11.495Z,7.83
2017-12-25T05:38:13.022Z,7.79
2017-12-25T05:39:11.509Z,7.72
2017-12-25T05:40:11.476Z,7.85
2017-12-25T05:41:14.027Z,7.90
2017-12-25T05:42:11.467Z,7.85
2017-12-25T05:43:11.465Z,7.95
2017-12-25T05:44:11.464Z,7.73
2017-12-25T05:45:11.461Z,7.82
2017-12-25T05:46:11.452Z,7.72
2017-12-25T05:47:13.048Z,7.73
2017-12-25T05:48:11.439Z,7.75
2017-12-25T05:49:13.033Z,7.79
2017-12-25T05:50:11.445Z,7.87
2017-12-25T05:51:11.427Z,7.82
2017-12-25T05:52:13.074Z,7.76
2017-12-25T05:53:11.417Z,7.87
2017-12-25T05:54:13.012Z,7.80
2017-12-25T05:55:11.433Z,7.80
2017-12-25T05:56:11.433Z,7.82
2017-12-25T05:57:11.430Z,7.75
2017-12-25T05:58:11.398Z,7.77
2017-12-25T05:59:11.390Z,7.75
2017-12-25T06:00:11.396Z,7.88
2017-12-25T06:01:14.013Z,7.88
2017-12-25T06:02:11.383Z,7.77
2017-12-25T06:03:11.374Z,7.85
2017-12-25T06:04:11.372Z,7.76
2017-12-25T06:05:11.366Z,7.75
2017-12-25T06:06:13.011Z,7.87
2017-12-25T06:07:11.357Z,7.75
2017-12-25T06:08:11.355Z,7.79
2017-12-25T06:09:11.350Z,7.75
2017-12-25T06:10:11.350Z,7.88
2017-12-25T06:11:11.370Z,7.87
2017-12-25T06:12:14.032Z,7.73
2017-12-25T06:13:13.015Z,7.77
2017-12-25T06:14:11.334Z,7.75
2017-12-25T06:15:11.324Z,7.75
2017-12-25T06:16:11.315Z,7.60
2017-12-25T06:17:11.342Z,7.69
2017-12-25T06:18:11.304Z,7.63
2017-12-25T06:19:11.325Z,7.66
2017-12-25T06:20:11.300Z,7.61
2017-12-25T06:21:11.295Z,7.57
2017-12-25T06:22:11.291Z,7.60
2017-12-25T06:23:11.288Z,7.80
2017-12-25T06:24:11.283Z,7.58
2017-12-25T06:25:11.282Z,7.63
2017-12-25T06:26:11.271Z,7.56
2017-12-25T06:27:11.274Z,7.58
2017-12-25T06:28:11.262Z,7.58
2017-12-25T06:29:11.264Z,7.60
2017-12-25T06:30:11.258Z,7.54
2017-12-25T06:31:11.262Z,7.54
2017-12-25T06:32:11.250Z,7.57
2017-12-25T06:33:11.244Z,7.58
2017-12-25T06:34:11.244Z,7.61
2017-12-25T06:35:11.237Z,7.58
2017-12-25T06:36:11.233Z,7.56
2017-12-25T06:37:11.220Z,7.60
2017-12-25T06:38:11.223Z,7.57
2017-12-25T06:39:14.027Z,7.51
2017-12-25T06:40:11.209Z,7.51
2017-12-25T06:41:11.221Z,7.57
2017-12-25T06:42:11.204Z,7.54
2017-12-25T06:43:11.195Z,7.38
2017-12-25T06:44:11.182Z,7.42
2017-12-25T06:45:11.184Z,7.36
2017-12-25T06:46:13.040Z,7.40
2017-12-25T06:47:13.021Z,7.29
2017-12-25T06:48:11.174Z,7.33
2017-12-25T06:49:11.166Z,7.32
2017-12-25T06:50:11.178Z,7.38
2017-12-25T06:51:11.169Z,7.42
2017-12-25T06:52:11.167Z,7.53
2017-12-25T06:53:11.145Z,7.39
2017-12-25T06:54:11.148Z,7.40
2017-12-25T06:55:11.143Z,7.39
2017-12-25T06:56:11.132Z,7.43
2017-12-25T06:57:11.128Z,7.42
2017-12-25T06:58:11.123Z,7.42
2017-12-25T06:59:11.161Z,7.40
2017-12-25T07:00:11.119Z,7.56
2017-12-25T07:01:11.103Z,7.58
2017-12-25T07:02:11.129Z,7.54
2017-12-25T07:03:13.038Z,7.53
2017-12-25T07:04:11.094Z,7.54
2017-12-25T07:05:11.089Z,7.53
2017-12-25T07:06:11.085Z,7.57
2017-12-25T07:07:14.032Z,7.50
2017-12-25T07:08:12.087Z,7.53
2017-12-25T07:09:11.070Z,7.54
2017-12-25T07:10:11.080Z,7.60
2017-12-25T07:11:13.035Z,7.51
2017-12-25T07:12:11.055Z,7.51
2017-12-25T07:13:11.086Z,7.48
2017-12-25T07:14:11.093Z,7.38
2017-12-25T07:15:11.044Z,7.42
2017-12-25T07:16:11.037Z,7.40
2017-12-25T07:17:11.071Z,7.40
2017-12-25T07:18:11.103Z,7.48
2017-12-25T07:19:11.046Z,7.53
2017-12-25T07:20:11.040Z,7.45
2017-12-25T07:21:11.049Z,7.54
2017-12-25T07:22:11.014Z,7.42
2017-12-25T07:23:11.005Z,7.40
2017-12-25T07:24:11.006Z,7.42
2017-12-25T07:25:10.998Z,7.47
2017-12-25T07:26:10.993Z,7.42
2017-12-25T07:27:10.989Z,7.39
2017-12-25T07:28:10.983Z,7.39
2017-12-25T07:29:11.004Z,7.39
2017-12-25T07:30:10.978Z,7.39
2017-12-25T07:31:10.967Z,7.39
2017-12-25T07:32:10.970Z,7.36
2017-12-25T07:33:12.538Z,7.31
2017-12-25T07:34:10.954Z,7.24
2017-12-25T07:35:12.534Z,7.28
2017-12-25T07:36:10.945Z,7.24
2017-12-25T07:37:10.941Z,7.32
2017-12-25T07:38:10.938Z,7.29
2017-12-25T07:39:10.938Z,7.39
2017-12-25T07:40:10.924Z,7.50
2017-12-25T07:41:10.956Z,7.57
2017-12-25T07:42:10.928Z,7.56
2017-12-25T07:43:10.911Z,7.56
2017-12-25T07:44:10.920Z,7.60
2017-12-25T07:45:10.912Z,7.43
2017-12-25T07:46:10.900Z,7.40
2017-12-25T07:47:10.906Z,7.25
2017-12-25T07:48:11.882Z,7.20
2017-12-25T07:49:10.885Z,7.28
2017-12-25T07:50:10.874Z,7.29
2017-12-25T07:51:10.879Z,7.25
2017-12-25T07:52:10.871Z,7.13
2017-12-25T07:53:13.537Z,7.21
2017-12-25T07:54:10.938Z,7.31
2017-12-25T07:55:13.554Z,7.39
2017-12-25T07:56:10.882Z,7.51
2017-12-25T07:57:10.849Z,7.58
2017-12-25T07:58:10.869Z,7.54
2017-12-25T07:59:10.843Z,7.38
2017-12-25T08:00:10.842Z,7.29
2017-12-25T08:01:10.851Z,7.31
2017-12-25T08:02:10.826Z,7.29
2017-12-25T08:03:10.821Z,7.24
2017-12-25T08:04:10.813Z,7.23
2017-12-25T08:05:10.811Z,7.28
2017-12-25T08:06:10.810Z,7.40
2017-12-25T08:07:10.792Z,7.42
2017-12-25T08:08:10.790Z,7.39
2017-12-25T08:09:10.790Z,7.40
2017-12-25T08:10:10.792Z,7.38
2017-12-25T08:11:10.796Z,7.45
2017-12-25T08:12:11.768Z,7.51
2017-12-25T08:13:10.769Z,7.39
2017-12-25T08:14:10.763Z,7.39
2017-12-25T08:15:12.537Z,7.42
2017-12-25T08:16:10.757Z,7.45
2017-12-25T08:17:10.747Z,7.45
2017-12-25T08:18:10.764Z,7.58
2017-12-25T08:19:10.749Z,7.50
2017-12-25T08:20:12.595Z,7.73
2017-12-25T08:21:10.823Z,7.72
2017-12-25T08:22:10.741Z,7.57
2017-12-25T08:23:10.736Z,7.61
2017-12-25T08:24:10.724Z,7.63
2017-12-25T08:25:10.733Z,7.43
2017-12-25T08:26:10.769Z,7.57
2017-12-25T08:27:10.700Z,7.51
2017-12-25T08:28:10.713Z,7.54
2017-12-25T08:29:10.692Z,7.48
2017-12-25T08:30:10.708Z,7.54
2017-12-25T08:31:10.683Z,7.60
2017-12-25T08:32:10.680Z,7.45
2017-12-25T08:33:10.704Z,7.38
2017-12-25T08:34:10.673Z,7.38
2017-12-25T08:35:10.663Z,7.42
2017-12-25T08:36:10.663Z,7.33
2017-12-25T08:37:12.555Z,7.47
2017-12-25T08:38:10.653Z,7.53
2017-12-25T08:39:10.652Z,7.54
2017-12-25T08:40:10.645Z,7.60
2017-12-25T08:41:12.574Z,7.54
2017-12-25T08:42:10.636Z,7.56
2017-12-25T08:43:10.626Z,7.63
2017-12-25T08:44:10.618Z,7.56
2017-12-25T08:45:10.621Z,7.40
2017-12-25T08:46:10.612Z,7.33
2017-12-25T08:47:10.613Z,7.29
2017-12-25T08:48:10.606Z,7.29
2017-12-25T08:49:10.642Z,7.29
2017-12-25T08:50:10.604Z,7.35
2017-12-25T08:51:10.691Z,7.20
2017-12-25T08:52:10.596Z,7.29
2017-12-25T08:53:10.571Z,7.21
2017-12-25T08:54:10.569Z,7.32
2017-12-25T08:55:10.568Z,7.24
2017-12-25T08:56:10.574Z,7.21
2017-12-25T08:57:10.567Z,7.24
2017-12-25T08:58:10.565Z,7.21
2017-12-25T08:59:10.556Z,7.11
2017-12-25T09:00:10.558Z,7.14
2017-12-25T09:01:10.887Z,7.24
2017-12-25T09:02:10.551Z,7.23
2017-12-25T09:03:10.529Z,7.18
2017-12-25T09:04:10.528Z,7.15
2017-12-25T09:05:10.662Z,7.31
2017-12-25T09:06:10.526Z,7.35
2017-12-25T09:07:10.548Z,7.24
2017-12-25T09:08:10.568Z,7.25
2017-12-25T09:09:10.504Z,7.32
2017-12-25T09:10:10.505Z,7.29
2017-12-25T09:11:10.563Z,7.24
2017-12-25T09:12:12.088Z,7.24
2017-12-25T09:13:10.488Z,7.25
2017-12-25T09:14:10.533Z,7.24
2017-12-25T09:15:10.513Z,7.28
2017-12-25T09:16:10.477Z,7.32
2017-12-25T09:17:11.460Z,7.29
2017-12-25T09:18:10.466Z,7.31
2017-12-25T09:19:13.143Z,7.35
2017-12-25T09:20:10.456Z,7.33
2017-12-25T09:21:10.442Z,7.39
2017-12-25T09:22:10.464Z,7.39
2017-12-25T09:23:12.112Z,7.39
2017-12-25T09:24:10.487Z,7.47
2017-12-25T09:25:10.597Z,7.51
2017-12-25T09:26:10.543Z,7.53
2017-12-25T09:27:13.065Z,7.54
2017-12-25T09:28:10.489Z,7.57
2017-12-25T09:29:12.058Z,7.56
2017-12-25T09:30:10.508Z,7.54
2017-12-25T09:31:12.111Z,7.54
2017-12-25T09:32:10.402Z,7.58
2017-12-25T09:33:12.274Z,7.58
2017-12-25T09:34:10.389Z,7.63
2017-12-25T09:35:13.413Z,7.70
2017-12-25T09:36:10.372Z,7.67
2017-12-25T09:37:10.396Z,7.67
2017-12-25T09:38:10.404Z,7.77
2017-12-25T09:39:11.138Z,7.80
2017-12-25T09:40:10.361Z,7.82
2017-12-25T09:41:10.357Z,7.83
2017-12-25T09:42:10.354Z,7.77
2017-12-25T09:43:13.278Z,7.75
2017-12-25T09:44:10.339Z,7.72
2017-12-25T09:45:10.339Z,7.58
2017-12-25T09:46:12.097Z,7.61
2017-12-25T09:47:10.350Z,7.66
2017-12-25T09:48:10.326Z,7.53
2017-12-25T09:49:10.343Z,7.66
2017-12-25T09:50:10.319Z,7.54
2017-12-25T09:51:10.385Z,7.58
2017-12-25T09:52:12.102Z,7.67
2017-12-25T09:53:10.357Z,7.57
2017-12-25T09:54:10.309Z,7.61
2017-12-25T09:55:10.303Z,7.67
2017-12-25T09:56:10.290Z,7.67
2017-12-25T09:57:12.070Z,7.61
2017-12-25T09:58:10.288Z,7.57
2017-12-25T09:59:10.272Z,7.63
2017-12-25T10:00:10.289Z,7.58
2017-12-25T10:01:10.268Z,7.75
2017-12-25T10:02:10.264Z,7.67
2017-12-25T10:03:10.266Z,7.75
2017-12-25T10:04:12.061Z,7.73
2017-12-25T10:05:10.275Z,7.75
2017-12-25T10:06:13.060Z,7.75
2017-12-25T10:07:10.239Z,7.73
2017-12-25T10:08:11.234Z,7.75
2017-12-25T10:09:10.231Z,7.72
2017-12-25T10:10:10.230Z,7.63
2017-12-25T10:11:10.227Z,7.57
2017-12-25T10:12:10.260Z,7.58
2017-12-25T10:13:10.215Z,7.54
2017-12-25T10:14:10.243Z,7.73
2017-12-25T10:15:10.388Z,7.58
2017-12-25T10:16:12.081Z,7.73
2017-12-25T10:17:10.212Z,7.72
2017-12-25T10:18:10.201Z,7.73
2017-12-25T10:19:10.207Z,7.75
2017-12-25T10:20:10.187Z,7.69
2017-12-25T10:21:10.189Z,7.75
2017-12-25T10:22:12.070Z,7.70
2017-12-25T10:23:10.170Z,7.73
2017-12-25T10:24:10.179Z,7.73
2017-12-25T10:25:10.167Z,7.88
2017-12-25T10:26:10.173Z,7.76
2017-12-25T10:27:10.158Z,7.90
2017-12-25T10:28:10.169Z,7.88
2017-12-25T10:29:10.153Z,7.88
2017-12-25T10:30:10.146Z,7.97
2017-12-25T10:31:10.148Z,7.91
2017-12-25T10:32:10.137Z,7.94
2017-12-25T10:33:10.142Z,7.90
2017-12-25T10:34:10.134Z,7.97
2017-12-25T10:35:10.130Z,7.80
2017-12-25T10:36:10.179Z,7.73
2017-12-25T10:37:11.095Z,7.75
2017-12-25T10:38:10.281Z,7.63
2017-12-25T10:39:10.339Z,7.63
2017-12-25T10:40:10.112Z,7.66
2017-12-25T10:41:10.344Z,7.57
2017-12-25T10:42:10.107Z,7.72
2017-12-25T10:43:10.091Z,7.61
2017-12-25T10:44:10.089Z,7.51
2017-12-25T10:45:10.084Z,7.45
2017-12-25T10:46:10.088Z,7.38
2017-12-25T10:47:10.081Z,7.39
2017-12-25T10:48:10.080Z,7.38
2017-12-25T10:49:11.572Z,7.40
2017-12-25T10:50:10.066Z,7.51
2017-12-25T10:51:10.071Z,7.66
2017-12-25T10:52:10.061Z,7.72
2017-12-25T10:53:10.050Z,7.70
2017-12-25T10:54:10.065Z,7.67
2017-12-25T10:55:10.112Z,7.73
2017-12-25T10:56:10.057Z,7.75
2017-12-25T10:57:11.578Z,7.80
2017-12-25T10:58:10.037Z,7.75
2017-12-25T10:59:10.059Z,7.76
2017-12-25T11:00:10.034Z,7.79
2017-12-25T11:01:10.026Z,7.88
2017-12-25T11:02:10.020Z,7.85
2017-12-25T11:03:10.008Z,7.83
2017-12-25T11:04:10.016Z,7.87
2017-12-25T11:05:10.010Z,7.85
2017-12-25T11:06:10.008Z,7.83
2017-12-25T11:07:09.994Z,7.79
2017-12-25T11:08:10.001Z,7.88
2017-12-25T11:09:10.018Z,7.82
2017-12-25T11:10:09.989Z,7.76
2017-12-25T11:11:09.998Z,7.76
2017-12-25T11:12:09.976Z,7.80
2017-12-25T11:13:09.975Z,7.80
2017-12-25T11:14:11.601Z,7.82
2017-12-25T11:15:09.966Z,7.77
2017-12-25T11:16:09.958Z,7.77
2017-12-25T11:17:09.968Z,7.87
2017-12-25T11:18:09.956Z,7.77
2017-12-25T11:19:09.945Z,7.83
2017-12-25T11:20:11.598Z,7.72
2017-12-25T11:21:10.998Z,7.73
2017-12-25T11:22:10.168Z,7.75
2017-12-25T11:23:09.954Z,7.73
2017-12-25T11:24:09.965Z,7.75
2017-12-25T11:25:09.927Z,7.73
2017-12-25T11:26:09.919Z,7.76
2017-12-25T11:27:09.918Z,7.75
2017-12-25T11:28:09.940Z,7.70
2017-12-25T11:29:09.930Z,7.75
2017-12-25T11:30:09.902Z,7.72
2017-12-25T11:31:09.919Z,7.77
2017-12-25T11:32:09.896Z,7.77
2017-12-25T11:33:09.897Z,7.79
2017-12-25T11:34:09.893Z,7.75
2017-12-25T11:35:09.897Z,7.69
2017-12-25T11:36:09.961Z,7.70
2017-12-25T11:37:10.026Z,7.80
2017-12-25T11:38:09.913Z,7.83
2017-12-25T11:39:10.131Z,7.85
2017-12-25T11:40:10.568Z,7.91
2017-12-25T11:41:10.110Z,7.91
2017-12-25T11:42:09.871Z,7.87
2017-12-25T11:43:10.169Z,7.91
2017-12-25T11:44:09.921Z,7.83
2017-12-25T11:45:09.871Z,7.80
2017-12-25T11:46:10.544Z,7.72
2017-12-25T11:47:09.837Z,7.70
2017-12-25T11:48:09.862Z,7.75
2017-12-25T11:49:09.865Z,7.85
2017-12-25T11:50:09.824Z,7.82
2017-12-25T11:51:09.876Z,7.90
2017-12-25T11:52:11.598Z,8.00
2017-12-25T11:53:09.810Z,8.00
2017-12-25T11:54:09.940Z,8.03
2017-12-25T11:55:09.978Z,7.95
2017-12-25T11:56:13.562Z,7.93
2017-12-25T11:57:11.608Z,7.76
2017-12-25T11:58:09.892Z,7.79
2017-12-25T11:59:10.723Z,7.90
2017-12-25T12:00:11.621Z,7.94
2017-12-25T12:01:09.775Z,7.97
2017-12-25T12:02:09.779Z,8.05
2017-12-25T12:03:09.808Z,8.01
2017-12-25T12:04:09.785Z,8.06
2017-12-25T12:05:09.878Z,8.15
2017-12-25T12:06:09.859Z,8.10
2017-12-25T12:07:09.763Z,8.15
2017-12-25T12:08:09.760Z,8.20
2017-12-25T12:09:09.747Z,8.10
2017-12-25T12:10:10.202Z,7.95
2017-12-25T12:11:12.363Z,7.90
2017-12-25T12:12:09.738Z,7.87
2017-12-25T12:13:09.743Z,7.90
2017-12-25T12:14:09.815Z,7.82
2017-12-25T12:15:09.777Z,7.75
2017-12-25T12:16:10.212Z,7.88
2017-12-25T12:17:10.545Z,7.87
2017-12-25T12:18:09.866Z,7.87
2017-12-25T12:19:09.716Z,7.87
2017-12-25T12:20:09.759Z,7.77
2017-12-25T12:21:09.733Z,7.85
2017-12-25T12:22:09.696Z,7.98
2017-12-25T12:23:09.702Z,7.87
2017-12-25T12:24:09.697Z,7.88
2017-12-25T12:25:09.702Z,7.90
2017-12-25T12:26:09.690Z,7.87
2017-12-25T12:27:09.685Z,7.91
2017-12-25T12:28:09.683Z,8.03
2017-12-25T12:29:09.676Z,8.16
2017-12-25T12:30:09.667Z,8.19
2017-12-25T12:31:09.667Z,8.38
2017-12-25T12:32:11.591Z,8.23
2017-12-25T12:33:09.663Z,8.27
2017-12-25T12:34:09.651Z,8.34
2017-12-25T12:35:11.592Z,8.44
2017-12-25T12:36:09.649Z,8.48
2017-12-25T12:37:09.643Z,8.55
2017-12-25T12:38:09.648Z,8.64
2017-12-25T12:39:09.638Z,8.61
2017-12-25T12:40:09.656Z,8.67
2017-12-25T12:41:09.634Z,8.61
2017-12-25T12:42:09.625Z,8.45
2017-12-25T12:43:09.624Z,8.38
2017-12-25T12:44:09.624Z,8.36
2017-12-25T12:45:09.616Z,8.36
2017-12-25T12:46:11.614Z,8.26
2017-12-25T12:47:11.104Z,8.27
2017-12-25T12:48:09.598Z,8.24
2017-12-25T12:49:09.601Z,8.37
2017-12-25T12:50:09.606Z,8.33
2017-12-25T12:51:09.596Z,8.33
2017-12-25T12:52:09.592Z,8.33
2017-12-25T12:53:09.590Z,8.34
2017-12-25T12:54:09.582Z,8.38
2017-12-25T12:55:09.579Z,8.33
2017-12-25T12:56:09.586Z,8.42
2017-12-25T12:57:09.570Z,8.48
2017-12-25T12:58:09.569Z,8.48
2017-12-25T12:59:09.564Z,8.51
2017-12-25T13:00:09.588Z,8.48
2017-12-25T13:01:09.561Z,8.46
2017-12-25T13:02:09.553Z,8.42
2017-12-25T13:03:09.548Z,8.36
2017-12-25T13:04:09.640Z,8.31
2017-12-25T13:05:09.549Z,8.27
2017-12-25T13:06:09.543Z,8.20
2017-12-25T13:07:09.542Z,8.41
2017-12-25T13:08:09.535Z,8.38
2017-12-25T13:09:09.624Z,8.37
2017-12-25T13:10:09.744Z,8.46
2017-12-25T13:11:12.113Z,8.56
2017-12-25T13:12:09.888Z,8.55
2017-12-25T13:13:11.120Z,8.53
2017-12-25T13:14:09.878Z,8.53
2017-12-25T13:15:09.511Z,8.36
2017-12-25T13:16:09.504Z,8.38
2017-12-25T13:17:09.517Z,8.27
2017-12-25T13:18:09.510Z,8.23
2017-12-25T13:19:09.495Z,8.27
2017-12-25T13:20:09.498Z,8.28
2017-12-25T13:21:09.503Z,8.33
2017-12-25T13:22:09.487Z,8.31
2017-12-25T13:23:09.477Z,8.36
2017-12-25T13:24:09.510Z,8.23
2017-12-25T13:25:09.485Z,8.13
2017-12-25T13:26:09.477Z,8.09
2017-12-25T13:27:09.464Z,8.08
2017-12-25T13:28:09.531Z,8.05
2017-12-25T13:29:09.458Z,8.18
2017-12-25T13:30:11.110Z,8.18
2017-12-25T13:31:09.451Z,8.18
2017-12-25T13:32:09.446Z,8.12
2017-12-25T13:33:09.441Z,8.27
2017-12-25T13:34:09.695Z,8.19
2017-12-25T13:35:11.108Z,8.10
2017-12-25T13:36:09.431Z,8.16